Time;durP1;ratioP1;P1;durP2;ratioP2;P2;SDS_P1;SDS_P2;PMS_P1;PMS_P2;Temp;Humidity;BMP_temperature;BMP_pressure;BME280_temperature;BME280_humidity;BME280_pressure;Samples;Min_cycle;Max_cycle;Signal;HPM_P1;HPM_P2
2023/01/03 00:01:56;;;;;;;37.42;14.38;;;;;;;5.06;81.61;100790.13;1699327;83;21838;-75
2023/01/03 00:04:23;;;;;;;26.33;13.50;;;;;;;5.04;81.62;100786.28;1700672;83;21520;-75
2023/01/03 00:06:51;;;;;;;49.80;13.58;;;;;;;5.03;81.61;100784.59;1700296;84;20967;-74
2023/01/03 00:09:21;;;;;;;21.85;12.82;;;;;;;5.03;81.65;100781.12;1715193;83;21011;-75
2023/01/03 00:14:37;;;;;;;101.90;15.58;;;;;;;5.01;81.64;100782.48;1726900;83;21718;-76
2023/01/03 00:17:04;;;;;;;46.30;14.60;;;;;;;5.00;81.62;100782.56;1726159;82;21022;-75
2023/01/03 00:19:38;;;;;;;119.80;14.47;;;;;;;4.98;81.61;100775.26;1701206;83;20955;-75
2023/01/03 00:22:04;;;;;;;;;;;;;;;4.97;81.57;100778.80;1728509;83;21513;-76
2023/01/03 00:24:31;;;;;;;39.30;12.73;;;;;;;4.96;81.59;100780.58;1726093;83;20124;-75
2023/01/03 00:26:57;;;;;;;36.55;16.40;;;;;;;4.92;81.65;100773.78;1725453;82;22448;-76
2023/01/03 00:29:24;;;;;;;47.85;19.98;;;;;;;4.91;81.70;100774.70;1726014;83;20999;-75
2023/01/03 00:31:51;;;;;;;49.58;23.62;;;;;;;4.90;81.73;100773.02;1726290;83;20979;-75
2023/01/03 00:34:17;;;;;;;80.97;44.77;;;;;;;4.88;81.75;100774.41;1724319;83;20983;-75
2023/01/03 00:36:43;;;;;;;70.70;34.78;;;;;;;4.87;81.86;100777.10;1725870;82;20995;-75
2023/01/03 00:39:10;;;;;;;56.42;27.05;;;;;;;4.87;81.93;100772.71;1726258;83;21814;-75
2023/01/03 00:41:39;;;;;;;102.97;27.62;;;;;;;4.89;82.01;100773.94;1723938;82;21099;-75
2023/01/03 00:44:05;;;;;;;65.12;22.40;;;;;;;4.91;82.01;100775.17;1695432;83;21558;-75
2023/01/03 00:46:32;;;;;;;112.83;16.02;;;;;;;4.89;81.97;100766.09;1693972;83;21422;-76
2023/01/03 00:48:59;;;;;;;68.30;14.83;;;;;;;4.87;82.00;100764.86;1693841;83;20971;-75
2023/01/03 00:51:28;;;;;;;150.35;21.00;;;;;;;4.86;82.05;100762.33;1694871;83;21739;-75
2023/01/03 00:53:56;;;;;;;205.05;25.10;;;;;;;4.85;82.09;100758.02;1691601;83;21505;-76
2023/01/03 00:56:28;;;;;;;172.40;23.38;;;;;;;4.83;82.08;100754.17;1694022;84;21102;-75
2023/01/03 00:58:54;;;;;;;166.92;17.80;;;;;;;4.81;82.02;100761.23;1695039;83;21460;-75
2023/01/03 01:01:28;;;;;;;93.35;15.15;;;;;;;4.76;81.96;100753.23;1722812;82;20999;-75
2023/01/03 01:03:58;;;;;;;67.72;13.53;;;;;;;4.71;81.93;100753.91;1722993;83;21839;-76
2023/01/03 01:06:30;;;;;;;76.42;12.80;;;;;;;4.67;81.92;100761.07;1720208;82;21050;-75
2023/01/03 01:08:59;;;;;;;39.53;12.58;;;;;;;4.63;81.89;100746.42;1721760;83;21474;-76
2023/01/03 01:11:29;;;;;;;22.45;12.45;;;;;;;4.59;81.94;100743.13;1722819;83;20972;-76
2023/01/03 01:13:56;;;;;;;74.20;13.30;;;;;;;4.59;82.07;100741.81;1720318;83;21594;-75
2023/01/03 01:16:27;;;;;;;75.52;13.70;;;;;;;4.61;82.21;100739.12;1721841;83;22383;-76
2023/01/03 01:18:53;;;;;;;112.45;14.23;;;;;;;4.63;82.28;100737.73;1697247;83;21516;-74
2023/01/03 01:21:24;;;;;;;135.25;15.72;;;;;;;4.63;82.35;100732.03;1693884;84;21326;-75
2023/01/03 01:23:51;;;;;;;103.22;13.48;;;;;;;4.64;82.33;100735.53;1693721;84;20979;-76
2023/01/03 01:26:20;;;;;;;111.47;13.45;;;;;;;4.62;82.33;100728.19;1668925;84;20947;-76
2023/01/03 01:28:48;;;;;;;54.38;12.47;;;;;;;4.59;82.26;100722.66;1707609;81;21455;-76
2023/01/03 01:31:17;;;;;;;57.98;12.53;;;;;;;4.55;82.19;100718.52;1722596;82;21006;-76
2023/01/03 01:33:44;;;;;;;41.88;12.70;;;;;;;4.51;82.25;100708.64;1712174;83;21596;-76
2023/01/03 01:36:24;;;;;;;21.40;12.85;;;;;;;4.49;82.31;100703.11;1694084;84;21422;-75
2023/01/03 01:38:56;;;;;;;23.50;13.15;;;;;;;4.47;82.36;100695.34;1693806;83;20951;-75
2023/01/03 01:44:47;;;;;;;45.25;13.18;;;;;;;4.49;82.46;100683.02;1695124;83;21542;-74
2023/01/03 01:47:31;;;;;;;32.40;14.10;;;;;;;4.50;82.47;100674.25;1694400;84;21018;-73
2023/01/03 01:50:12;;;;;;;53.85;14.18;;;;;;;4.47;82.43;100672.27;1695948;83;20979;-75
2023/01/03 01:52:43;;;;;;;66.05;14.83;;;;;;;4.45;82.46;100669.73;1721195;82;20991;-75
2023/01/03 01:55:12;;;;;;;82.20;15.68;;;;;;;4.41;82.40;100662.94;1723622;82;21859;-74
2023/01/03 01:57:39;;;;;;;107.75;14.68;;;;;;;4.40;82.37;100656.48;1723488;83;20994;-74
2023/01/03 02:00:08;;;;;;;25.15;13.43;;;;;;;4.34;82.32;100657.61;1712122;83;21066;-75
2023/01/03 02:02:36;;;;;;;13.45;11.97;;;;;;;4.28;82.27;100650.94;1693613;83;21014;-74
2023/01/03 02:05:05;;;;;;;13.93;12.40;;;;;;;4.25;82.31;100644.55;1694359;84;21460;-75
2023/01/03 02:07:33;;;;;;;14.28;12.50;;;;;;;4.25;82.43;100647.63;1703274;83;21874;-74
2023/01/03 02:10:00;;;;;;;15.65;13.83;;;;;;;4.27;82.56;100648.39;1723163;83;21453;-75
2023/01/03 02:13:05;;;;;;;15.40;13.80;;;;;;;4.29;82.64;100644.78;1723480;83;21405;-75
2023/01/03 02:16:13;;;;;;;18.23;14.35;;;;;;;4.31;82.71;100636.86;1723153;82;20949;-74
2023/01/03 02:18:53;;;;;;;15.98;13.13;;;;;;;4.32;82.75;100626.77;1694299;84;20963;-74
2023/01/03 02:21:44;;;;;;;16.07;12.63;;;;;;;4.31;82.82;100629.85;1694188;83;22240;-75
2023/01/03 02:24:55;;;;;;;21.42;12.37;;;;;;;4.31;82.91;100627.70;1694869;83;21348;-75
2023/01/03 02:27:39;;;;;;;44.40;12.58;;;;;;;4.32;83.00;100625.47;1693793;84;21010;-75
2023/01/03 02:30:34;;;;;;;50.75;12.30;;;;;;;4.33;83.07;100623.70;1693723;84;21018;-75
2023/01/03 02:33:09;;;;;;;60.08;11.65;;;;;;;4.31;83.11;100619.86;1694501;84;20943;-75
2023/01/03 02:35:59;;;;;;;50.95;11.70;;;;;;;4.28;83.08;100610.87;1722674;83;22834;-75
2023/01/03 02:38:33;;;;;;;56.33;11.18;;;;;;;4.24;83.12;100608.84;1723136;83;21050;-75
2023/01/03 02:41:11;;;;;;;71.67;10.28;;;;;;;4.22;83.12;100609.85;1722208;83;20951;-75
2023/01/03 02:43:48;;;;;;;74.37;11.70;;;;;;;4.18;83.12;100607.02;1721316;82;21011;-75
2023/01/03 02:46:22;;;;;;;81.37;11.70;;;;;;;4.14;83.14;100597.16;1723215;83;21390;-75
2023/01/03 02:49:00;;;;;;;109.45;12.73;;;;;;;4.12;83.18;100595.08;1722145;82;22127;-75
2023/01/03 02:51:32;;;;;;;72.55;10.88;;;;;;;4.09;83.21;100595.24;1722348;83;21300;-75
2023/01/03 02:53:59;;;;;;;116.77;11.95;;;;;;;4.08;83.29;100599.23;1723249;83;21434;-75
2023/01/03 02:56:36;;;;;;;169.07;12.03;;;;;;;4.07;83.31;100588.41;1723203;83;21537;-75
2023/01/03 02:59:07;;;;;;;130.78;11.75;;;;;;;4.05;83.33;100597.59;1708144;83;21097;-74
2023/01/03 03:01:35;;;;;;;107.87;10.10;;;;;;;4.03;83.33;100596.37;1694779;83;20950;-75
2023/01/03 03:04:02;;;;;;;127.67;11.43;;;;;;;4.00;83.31;100597.84;1694193;84;20951;-76
2023/01/03 03:07:07;;;;;;;70.42;9.80;;;;;;;3.96;83.30;100590.23;1694206;84;20998;-76
2023/01/03 03:13:11;;;;;;;151.87;11.68;;;;;;;3.89;83.36;100589.67;1694344;83;21099;-75
2023/01/03 03:14:49;;;;;;;56.37;9.78;;;;;;;3.82;83.59;100586.97;1694849;83;21867;-73
2023/01/03 03:17:23;;;;;;;133.65;11.70;;;;;;;3.82;83.79;100581.73;1722888;82;20999;-74
2023/01/03 03:25:58;;;;;;;209.60;13.13;;;;;;;3.80;84.11;100590.13;1722183;82;21003;-75
2023/01/03 03:28:34;;;;;;;68.80;11.03;;;;;;;3.78;84.20;100597.19;1722908;83;21872;-74
2023/01/03 03:31:14;;;;;;;193.45;14.28;;;;;;;3.76;84.30;100594.24;1723295;83;20984;-76
2023/01/03 03:33:52;;;;;;;120.50;12.58;;;;;;;3.76;84.40;100598.16;1722270;83;21426;-76
2023/01/03 03:36:32;;;;;;;154.53;13.68;;;;;;;3.75;84.50;100594.70;1723163;83;21490;-76
2023/01/03 03:39:00;;;;;;;45.55;11.70;;;;;;;3.74;84.50;100589.09;1720286;83;21008;-76
2023/01/03 03:47:35;;;;;;;35.40;11.10;;;;;;;3.63;84.69;100588.77;1682608;85;20955;-75
2023/01/03 03:50:26;;;;;;;68.85;12.95;;;;;;;3.59;84.76;100591.14;1685273;84;20956;-75
2023/01/03 03:52:57;;;;;;;52.08;13.13;;;;;;;3.55;84.82;100580.44;1683077;84;21483;-75
2023/01/03 03:55:28;;;;;;;82.33;14.35;;;;;;;3.57;84.97;100581.20;1686373;85;21800;-74
2023/01/03 03:58:05;;;;;;;72.45;14.13;;;;;;;3.57;85.03;100582.51;1685050;84;21011;-75
2023/01/03 04:00:37;;;;;;;24.82;12.78;;;;;;;3.58;85.09;100583.77;1710680;83;20956;-75
2023/01/03 04:03:03;;;;;;;51.37;14.10;;;;;;;3.58;85.09;100581.62;1711448;83;21070;-75
2023/01/03 04:05:33;;;;;;;45.10;13.28;;;;;;;3.56;85.13;100570.38;1711502;82;20943;-74
2023/01/03 04:08:00;;;;;;;24.05;12.82;;;;;;;3.55;85.22;100568.69;1710518;82;21920;-74
2023/01/03 04:10:26;;;;;;;39.40;13.75;;;;;;;3.54;85.27;100570.45;1711458;83;21042;-75
2023/01/03 04:12:53;;;;;;;69.00;15.43;;;;;;;3.53;85.38;100570.53;1687688;83;21090;-75
2023/01/03 04:15:19;;;;;;;24.23;12.65;;;;;;;3.52;85.47;100568.38;1705605;83;20959;-74
2023/01/03 04:17:46;;;;;;;19.32;12.15;;;;;;;3.54;85.57;100570.45;1682708;85;21011;-74
2023/01/03 04:20:13;;;;;;;28.10;14.03;;;;;;;3.55;85.62;100573.91;1682567;84;21958;-75
2023/01/03 04:22:40;;;;;;;70.35;15.05;;;;;;;3.55;85.70;100572.60;1682595;85;21449;-75
2023/01/03 04:25:08;;;;;;;30.40;12.90;;;;;;;3.56;85.80;100569.06;1709620;83;21035;-75
2023/01/03 04:27:34;;;;;;;65.78;14.80;;;;;;;3.56;85.89;100566.45;1711447;82;21487;-75
2023/01/03 04:30:01;;;;;;;44.27;13.62;;;;;;;3.57;85.96;100572.06;1708860;83;21411;-76
2023/01/03 04:32:27;;;;;;;38.85;13.90;;;;;;;3.58;86.05;100570.71;1709885;82;22468;-76
2023/01/03 04:34:54;;;;;;;81.95;15.18;;;;;;;3.58;86.08;100564.64;1711029;83;21047;-75
2023/01/03 04:37:21;;;;;;;64.95;15.28;;;;;;;3.58;86.16;100566.80;1711343;83;20951;-75
2023/01/03 04:39:48;;;;;;;63.52;14.35;;;;;;;3.60;86.24;100571.48;1710806;83;21041;-74
2023/01/03 04:45:00;;;;;;;33.98;13.50;;;;;;;3.61;86.32;100556.66;1682375;84;22844;-75
2023/01/03 04:47:27;;;;;;;41.10;14.98;;;;;;;3.62;86.42;100558.34;1682525;85;20999;-74
2023/01/03 04:49:53;;;;;;;36.95;14.10;;;;;;;3.64;86.51;100553.89;1684118;83;21042;-77
2023/01/03 04:52:20;;;;;;;32.70;13.90;;;;;;;3.65;86.58;100551.66;1682486;85;20960;-74
2023/01/03 04:54:47;;;;;;;48.42;15.38;;;;;;;3.65;86.65;100541.20;1682666;85;21501;-74
2023/01/03 04:57:13;;;;;;;37.17;15.38;;;;;;;3.67;86.73;100538.09;1687598;83;21941;-75
2023/01/03 04:59:41;;;;;;;28.73;13.98;;;;;;;3.70;86.78;100528.78;1690966;83;20988;-75
2023/01/03 05:02:07;;;;;;;64.60;15.00;;;;;;;3.71;86.86;100536.55;1711355;83;21414;-74
2023/01/03 05:04:34;;;;;;;32.53;13.90;;;;;;;3.72;86.91;100530.86;1711050;82;21586;-75
2023/01/03 05:07:00;;;;;;;58.10;15.98;;;;;;;3.73;86.97;100519.02;1701297;83;21339;-77
2023/01/03 05:09:27;;;;;;;64.20;15.55;;;;;;;3.74;86.99;100522.48;1682433;85;21945;-76
2023/01/03 05:11:54;;;;;;;17.27;13.48;;;;;;;3.75;87.05;100525.47;1660893;85;21050;-76
2023/01/03 05:14:21;;;;;;;66.55;15.90;;;;;;;3.76;87.10;100523.70;1662034;85;21027;-76
2023/01/03 05:16:47;;;;;;;26.02;14.25;;;;;;;3.74;87.16;100519.87;1682914;83;20987;-75
2023/01/03 05:19:14;;;;;;;52.27;14.95;;;;;;;3.74;87.22;100515.95;1682642;84;21122;-76
2023/01/03 05:27:10;;;;;;;74.55;16.07;;;;;;;3.76;87.43;100512.80;1711182;83;21023;-75
2023/01/03 05:29:37;;;;;;;98.12;16.60;;;;;;;3.80;87.52;100505.67;1711081;83;20984;-75
2023/01/03 05:32:04;;;;;;;80.50;16.27;;;;;;;3.81;87.50;100512.13;1710067;83;21644;-76
2023/01/03 05:34:32;;;;;;;49.55;16.42;;;;;;;3.81;87.54;100505.59;1710834;83;21910;-76
2023/01/03 05:36:58;;;;;;;33.67;14.78;;;;;;;3.85;87.61;100503.66;1711078;82;20957;-74
2023/01/03 05:39:26;;;;;;;55.50;15.93;;;;;;;3.86;87.63;100500.12;1711046;82;21067;-75
2023/01/03 05:41:58;;;;;;;90.75;16.35;;;;;;;3.87;87.70;100502.69;1710200;83;21005;-74
2023/01/03 05:44:32;;;;;;;99.28;16.70;;;;;;;3.89;87.69;100499.53;1711125;83;21505;-76
2023/01/03 05:46:59;;;;;;;76.17;15.28;;;;;;;3.90;87.71;100510.83;1711397;83;21885;-76
2023/01/03 05:49:25;;;;;;;29.57;12.90;;;;;;;3.90;87.75;100503.83;1692374;82;21011;-74
2023/01/03 05:51:52;;;;;;;68.00;14.40;;;;;;;3.93;87.81;100496.29;1682568;84;20967;-76
2023/01/03 05:54:20;;;;;;;46.85;14.18;;;;;;;3.93;87.80;100505.44;1682639;85;20972;-76
2023/01/03 05:56:46;;;;;;;44.48;13.93;;;;;;;3.91;87.81;100496.38;1682640;85;21006;-76
2023/01/03 05:59:13;;;;;;;49.10;14.63;;;;;;;3.91;87.87;100495.53;1683543;83;21942;-75
2023/01/03 06:01:39;;;;;;;111.40;15.95;;;;;;;3.91;87.88;100491.61;1682552;84;20952;-75
2023/01/03 06:04:06;;;;;;;161.28;17.05;;;;;;;3.90;87.96;100488.61;1682546;84;21003;-73
2023/01/03 06:06:33;;;;;;;158.75;17.52;;;;;;;3.92;88.00;100495.45;1703029;83;21012;-75
2023/01/03 06:08:59;;;;;;;25.08;14.90;;;;;;;3.94;88.05;100496.67;1711218;83;20991;-76
2023/01/03 06:11:28;;;;;;;37.15;14.47;;;;;;;3.92;88.04;100487.61;1711203;82;20968;-75
2023/01/03 06:13:54;;;;;;;159.82;16.37;;;;;;;3.92;88.08;100491.98;1709299;83;21503;-75
2023/01/03 06:19:07;;;;;;;86.95;15.48;;;;;;;3.91;88.17;100488.53;1682504;84;21035;-74
2023/01/03 06:21:33;;;;;;;57.58;15.25;;;;;;;3.90;88.24;100483.39;1682599;84;20968;-76
2023/01/03 06:24:00;;;;;;;141.95;17.60;;;;;;;3.89;88.26;100504.75;1683656;83;21950;-76
2023/01/03 06:26:27;;;;;;;103.17;17.73;;;;;;;3.90;88.38;100502.98;1682508;84;21474;-75
2023/01/03 06:28:54;;;;;;;144.00;18.80;;;;;;;3.92;88.43;100515.05;1682535;84;21083;-75
2023/01/03 06:31:20;;;;;;;89.28;16.27;;;;;;;3.92;88.46;100505.90;1683478;83;20979;-74
2023/01/03 06:33:48;;;;;;;74.03;15.95;;;;;;;3.95;88.50;100509.66;1682792;85;21002;-75
2023/01/03 06:36:18;;;;;;;115.55;16.70;;;;;;;3.98;88.57;100516.52;1682540;83;21904;-74
2023/01/03 06:38:44;;;;;;;201.75;19.10;;;;;;;3.99;88.61;100512.52;1682816;85;21048;-75
2023/01/03 06:41:12;;;;;;;170.30;20.02;;;;;;;4.02;88.64;100506.28;1710981;82;20947;-75
2023/01/03 06:43:40;;;;;;;123.38;17.45;;;;;;;4.05;88.73;100507.89;1710981;82;20964;-74
2023/01/03 06:54:27;;;;;;;116.75;18.40;;;;;;;4.13;88.88;100509.66;1682556;85;21006;-76
2023/01/03 06:56:53;;;;;;;37.45;16.05;;;;;;;4.15;88.95;100520.88;1695840;82;20994;-76
2023/01/03 06:59:21;;;;;;;153.38;18.98;;;;;;;4.17;89.03;100523.82;1711228;82;20951;-74
2023/01/03 07:01:49;;;;;;;115.88;18.55;;;;;;;4.22;89.11;100523.58;1711499;82;21797;-75
2023/01/03 07:04:16;;;;;;;30.27;15.68;;;;;;;4.26;89.19;100519.44;1710998;82;21485;-76
2023/01/03 07:06:43;;;;;;;92.40;17.57;;;;;;;4.33;89.25;100525.64;1693526;83;21426;-76
2023/01/03 07:09:10;;;;;;;42.95;15.72;;;;;;;4.37;89.29;100523.27;1682636;84;21145;-76
2023/01/03 07:11:38;;;;;;;51.30;17.37;;;;;;;4.43;89.39;100529.47;1682633;85;21047;-76
2023/01/03 07:14:05;;;;;;;80.10;18.15;;;;;;;4.46;89.37;100530.64;1693508;83;21770;-75
2023/01/03 07:16:37;;;;;;;65.08;18.82;;;;;;;4.50;89.44;100520.39;1682612;84;20918;-75
2023/01/03 07:19:05;;;;;;;34.90;16.20;;;;;;;4.53;89.46;100518.91;1681842;85;21576;-76
2023/01/03 07:21:33;;;;;;;42.65;16.80;;;;;;;4.55;89.49;100515.78;1682588;85;21005;-75
2023/01/03 07:24:01;;;;;;;50.73;17.55;;;;;;;4.56;89.48;100515.70;1683508;83;20971;-76
2023/01/03 07:26:29;;;;;;;48.58;16.77;;;;;;;4.57;89.54;100508.70;1682558;84;21525;-75
2023/01/03 07:28:57;;;;;;;59.80;17.87;;;;;;;4.57;89.57;100505.62;1682519;85;20992;-76
2023/01/03 07:31:24;;;;;;;49.73;17.35;;;;;;;4.60;89.61;100508.52;1698626;83;21078;-75
2023/01/03 07:33:51;;;;;;;43.70;17.67;;;;;;;4.63;89.65;100515.36;1711241;83;20952;-75
2023/01/03 07:36:18;;;;;;;49.20;17.30;;;;;;;4.67;89.70;100517.75;1711174;82;20964;-76
2023/01/03 07:38:45;;;;;;;47.65;17.82;;;;;;;4.70;89.70;100520.66;1711271;82;21972;-76
2023/01/03 07:41:13;;;;;;;23.35;16.35;;;;;;;4.72;89.75;100526.65;1710507;83;20952;-74
2023/01/03 07:43:46;;;;;;;33.08;16.90;;;;;;;4.74;89.74;100520.89;1714320;82;20900;-74
2023/01/03 07:46:20;;;;;;;22.35;15.90;;;;;;;4.75;89.77;100531.28;1714468;83;20967;-77
2023/01/03 07:48:50;;;;;;;27.25;17.42;;;;;;;4.77;89.77;100526.80;1710718;83;21091;-76
2023/01/03 07:51:21;;;;;;;18.77;15.90;;;;;;;4.78;89.79;100522.41;1710858;83;21919;-72
2023/01/03 07:53:50;;;;;;;40.08;18.25;;;;;;;4.80;89.85;100520.55;1710807;82;20976;-72
2023/01/03 07:56:19;;;;;;;32.13;18.70;;;;;;;4.80;89.87;100519.24;1710044;83;21552;-72
2023/01/03 07:58:47;;;;;;;37.67;19.92;;;;;;;4.82;89.93;100520.84;1710935;82;20996;-72
2023/01/03 08:01:17;;;;;;;35.58;20.05;;;;;;;4.86;89.97;100524.16;1710719;84;21795;-73
2023/01/03 08:03:43;;;;;;;33.08;18.92;;;;;;;4.88;90.05;100520.53;1710889;82;21818;-73
2023/01/03 08:06:19;;;;;;;35.25;18.90;;;;;;;4.91;90.08;100516.89;1683461;84;20964;-74
2023/01/03 08:13:16;;;;;;;35.28;21.23;;;;;;;4.93;90.10;100512.45;1682334;84;21490;-72
2023/01/03 08:14:01;;;;;;;23.38;19.42;;;;;;;5.04;90.24;100522.34;1695953;84;21006;-73
2023/01/03 08:16:27;;;;;;;22.07;18.40;;;;;;;5.06;90.26;100517.39;1710768;83;21847;-72
2023/01/03 08:18:54;;;;;;;27.87;20.48;;;;;;;5.10;90.28;100528.06;1711104;82;21066;-71
2023/01/03 08:21:21;;;;;;;29.18;20.65;;;;;;;5.11;90.30;100517.97;1704781;83;21519;-73
2023/01/03 08:23:47;;;;;;;27.70;20.90;;;;;;;5.17;90.38;100516.80;1696536;83;21483;-75
2023/01/03 08:26:15;;;;;;;27.30;20.65;;;;;;;5.20;90.33;100507.45;1710674;83;20964;-74
2023/01/03 08:28:42;;;;;;;33.98;20.45;;;;;;;5.21;90.37;100506.56;1710908;84;21811;-75
2023/01/03 08:31:18;;;;;;;31.42;21.33;;;;;;;5.25;90.41;100517.70;1699510;83;21416;-74
2023/01/03 08:33:52;;;;;;;29.18;22.87;;;;;;;5.29;90.46;100518.73;1682420;85;21063;-71
2023/01/03 08:36:19;;;;;;;25.23;20.68;;;;;;;5.33;90.50;100511.58;1682156;84;21010;-72
2023/01/03 08:38:54;;;;;;;23.15;18.52;;;;;;;5.34;90.47;100504.09;1693474;83;21024;-72
2023/01/03 08:41:23;;;;;;;23.87;20.25;;;;;;;5.38;90.52;100496.43;1710891;82;21948;-73
2023/01/03 08:43:50;;;;;;;25.85;19.57;;;;;;;5.40;90.53;100498.49;1688308;83;20967;-71
2023/01/03 08:46:19;;;;;;;22.90;20.05;;;;;;;5.42;90.58;100502.74;1713688;83;21012;-74
2023/01/03 08:48:45;;;;;;;23.15;19.25;;;;;;;5.44;90.53;100496.10;1694695;83;21505;-70
2023/01/03 08:51:12;;;;;;;22.60;19.98;;;;;;;5.49;90.64;100494.52;1685428;85;21678;-75
2023/01/03 08:53:39;;;;;;;22.25;18.55;;;;;;;5.56;90.72;100487.54;1663307;85;21933;-71
2023/01/03 08:56:07;;;;;;;21.37;19.00;;;;;;;5.61;90.77;100483.37;1700461;83;21043;-72
2023/01/03 08:58:33;;;;;;;21.20;18.25;;;;;;;5.67;90.80;100478.59;1713734;83;20992;-72
2023/01/03 09:01:04;;;;;;;20.45;18.15;;;;;;;5.75;90.93;100471.14;1713963;83;20960;-74
2023/01/03 09:03:31;;;;;;;19.50;17.15;;;;;;;5.82;90.90;100465.55;1713651;83;20992;-76
2023/01/03 09:06:01;;;;;;;22.37;18.98;;;;;;;5.87;90.93;100463.49;1693988;83;21814;-74
2023/01/03 09:08:34;;;;;;;21.15;18.65;;;;;;;5.91;90.86;100454.56;1685054;85;21023;-74
2023/01/03 09:11:06;;;;;;;20.60;18.23;;;;;;;5.95;90.88;100459.99;1685101;85;20998;-73
2023/01/03 09:13:34;;;;;;;21.75;17.57;;;;;;;5.98;90.87;100448.88;1696477;83;21620;-74
2023/01/03 09:16:02;;;;;;;21.02;17.98;;;;;;;6.07;91.01;100447.46;1668092;84;21034;-75
2023/01/03 09:18:29;;;;;;;19.52;17.42;;;;;;;6.18;91.13;100473.91;1665078;86;21778;-73
2023/01/03 09:20:55;;;;;;;20.92;17.35;;;;;;;6.28;91.20;100471.59;1664732;86;20997;-76
2023/01/03 09:23:22;;;;;;;20.85;18.60;;;;;;;6.38;91.29;100468.78;1668539;84;21423;-73
2023/01/03 09:25:49;;;;;;;19.20;16.15;;;;;;;6.51;91.45;100464.47;1694249;84;20960;-73
2023/01/03 09:28:15;;;;;;;18.90;16.52;;;;;;;6.67;91.63;100474.87;1694460;84;21500;-76
2023/01/03 09:30:42;;;;;;;19.00;15.88;;;;;;;6.78;91.47;100464.55;1716990;83;21928;-74
2023/01/03 09:33:09;;;;;;;16.87;15.08;;;;;;;6.88;91.55;100464.35;1697496;83;20980;-79
2023/01/03 09:35:38;;;;;;;18.98;16.25;;;;;;;7.02;91.57;100468.72;1723483;82;20996;-75
2023/01/03 09:38:05;;;;;;;17.57;15.63;;;;;;;7.11;91.43;100462.05;1723202;83;21000;-74
2023/01/03 09:40:41;;;;;;;16.82;15.00;;;;;;;7.24;91.49;100454.22;1722160;83;20973;-74
2023/01/03 09:43:18;;;;;;;17.00;15.20;;;;;;;7.38;91.51;100458.97;1723173;83;21887;-78
2023/01/03 09:45:51;;;;;;;20.55;17.30;;;;;;;7.50;91.26;100440.71;1726752;83;20951;-74
2023/01/03 09:48:31;;;;;;;19.75;17.65;;;;;;;7.59;90.99;100438.80;1697393;84;21506;-73
2023/01/03 09:50:58;;;;;;;18.65;16.65;;;;;;;7.65;90.72;100435.30;1697889;84;20987;-74
2023/01/03 10:05:13;;;;;;;15.17;13.10;;;;;;;8.13;89.69;100421.59;1732341;81;20934;-75
2023/01/03 10:07:45;;;;;;;15.00;12.05;;;;;;;8.30;89.35;100408.95;1731129;83;20943;-75
2023/01/03 10:10:39;;;;;;;12.75;11.45;;;;;;;8.47;89.22;100410.42;1731109;82;21758;-74
2023/01/03 10:13:16;;;;;;;11.57;10.38;;;;;;;8.70;89.10;100408.81;1750527;81;21013;-75
2023/01/03 10:16:00;;;;;;;12.07;10.65;;;;;;;8.99;88.28;100401.94;1761177;81;20949;-75
2023/01/03 10:18:53;;;;;;;11.25;10.05;;;;;;;9.24;87.75;100406.25;1761169;81;21365;-72
2023/01/03 10:21:31;;;;;;;12.28;10.03;;;;;;;9.41;86.52;100400.58;1742394;81;20969;-74
2023/01/03 10:23:57;;;;;;;10.93;9.45;;;;;;;9.50;84.81;100397.27;1730985;83;22460;-73
2023/01/03 10:26:24;;;;;;;11.35;9.93;;;;;;;9.60;84.02;100400.05;1730794;83;21060;-73
2023/01/03 10:28:52;;;;;;;11.00;9.10;;;;;;;9.66;83.04;100403.56;1730922;83;20973;-74
2023/01/03 10:31:46;;;;;;;9.60;8.48;;;;;;;9.73;82.12;100407.40;1703411;83;20993;-74
2023/01/03 10:34:12;;;;;;;11.57;9.35;;;;;;;9.71;80.13;100404.88;1749345;80;20952;-74
2023/01/03 10:36:39;;;;;;;10.65;9.55;;;;;;;9.69;79.34;100404.16;1784957;80;21830;-73
2023/01/03 10:39:09;;;;;;;10.82;9.03;;;;;;;9.69;78.59;100412.08;1733442;80;20962;-74
2023/01/03 10:41:45;;;;;;;11.30;9.40;;;;;;;9.69;78.03;100411.23;1731277;83;21025;-73
2023/01/03 10:44:29;;;;;;;11.05;9.10;;;;;;;9.70;77.28;100415.07;1730616;82;21072;-75
2023/01/03 10:46:58;;;;;;;12.00;9.23;;;;;;;9.70;76.69;100411.12;1732256;81;21021;-74
2023/01/03 10:49:29;;;;;;;11.38;9.28;;;;;;;9.72;76.39;100411.83;1730834;83;21847;-75
2023/01/03 10:52:13;;;;;;;10.90;8.90;;;;;;;9.75;75.95;100414.27;1702167;83;21028;-75
2023/01/03 10:54:50;;;;;;;11.57;9.13;;;;;;;9.77;75.75;100406.23;1741895;81;21001;-74
2023/01/03 10:57:42;;;;;;;9.93;8.83;;;;;;;9.80;75.26;100415.22;1761383;81;21476;-75
2023/01/03 11:00:34;;;;;;;11.90;9.70;;;;;;;9.78;74.53;100411.86;1760923;81;20997;-73
2023/01/03 11:03:23;;;;;;;11.45;9.50;;;;;;;9.75;74.66;100421.34;1761247;81;21901;-74
2023/01/03 11:06:04;;;;;;;10.58;9.28;;;;;;;9.79;74.75;100420.61;1702004;83;20966;-74
2023/01/03 11:08:48;;;;;;;10.70;9.45;;;;;;;9.88;74.62;100408.89;1730812;83;21049;-80
2023/01/03 11:11:31;;;;;;;10.82;9.43;;;;;;;9.94;74.34;100405.80;1737025;81;21041;-77
2023/01/03 11:14:23;;;;;;;10.48;9.38;;;;;;;9.95;73.82;100391.64;1784970;80;20984;-76
2023/01/03 11:17:00;;;;;;;10.90;9.50;;;;;;;9.97;73.86;100392.84;1784165;80;21907;-76
2023/01/03 11:19:29;;;;;;;10.68;9.00;;;;;;;10.03;73.57;100400.27;1752701;81;21064;-74
2023/01/03 11:22:13;;;;;;;13.48;9.20;;;;;;;10.06;73.13;100398.73;1676817;84;21072;-74
2023/01/03 11:25:00;;;;;;;11.55;9.53;;;;;;;10.09;73.01;100409.05;1698405;84;21023;-75
2023/01/03 11:27:57;;;;;;;11.05;9.08;;;;;;;10.13;72.83;100405.67;1688274;84;21102;-76
2023/01/03 11:30:56;;;;;;;11.38;9.08;;;;;;;10.20;72.69;100408.22;1697128;84;21906;-75
2023/01/03 11:33:46;;;;;;;12.35;9.55;;;;;;;10.27;72.48;100408.14;1700155;84;20933;-74
2023/01/03 11:36:27;;;;;;;11.78;9.70;;;;;;;10.36;71.94;100412.70;1697260;84;20972;-75
2023/01/03 11:39:10;;;;;;;11.43;9.38;;;;;;;10.37;71.70;100413.06;1694507;83;21032;-76
2023/01/03 11:41:54;;;;;;;11.25;9.58;;;;;;;10.44;71.76;100406.84;1697728;84;21047;-75
2023/01/03 11:45:17;;;;;;;12.53;9.55;;;;;;;10.62;71.82;100410.67;1694646;84;21866;-76
2023/01/03 11:48:10;;;;;;;10.23;9.13;;;;;;;10.79;71.27;100409.31;1700933;84;20996;-75
2023/01/03 11:50:47;;;;;;;;;;;;;;;10.95;70.93;100407.13;1676469;84;21464;-74
2023/01/03 11:53:37;;;;;;;11.38;9.45;;;;;;;11.13;70.62;100415.39;1700682;84;20458;-75
2023/01/03 11:56:09;;;;;;;11.40;9.35;;;;;;;11.27;70.34;100402.36;1723715;83;21474;-75
2023/01/03 11:59:23;;;;;;;11.88;8.70;;;;;;;11.37;69.42;100405.44;1730201;83;21982;-75
2023/01/03 12:02:26;;;;;;;10.53;8.90;;;;;;;11.39;68.27;100410.63;1701271;83;20880;-74
2023/01/03 12:05:10;;;;;;;10.00;8.85;;;;;;;11.31;68.23;100409.92;1688596;85;21077;-75
2023/01/03 12:07:51;;;;;;;11.08;8.68;;;;;;;11.30;67.99;100422.80;1696930;84;21019;-75
2023/01/03 12:10:32;;;;;;;13.38;9.38;;;;;;;11.32;67.91;100414.73;1697900;84;21008;-76
2023/01/03 12:13:27;;;;;;;11.78;9.30;;;;;;;11.38;67.82;100420.34;1693027;83;21812;-76
2023/01/03 12:16:05;;;;;;;11.03;9.60;;;;;;;11.45;67.73;100424.17;1688481;85;21453;-76
2023/01/03 12:18:56;;;;;;;11.97;9.00;;;;;;;11.51;67.42;100418.86;1705289;84;21498;-76
2023/01/03 12:21:39;;;;;;;13.30;9.80;;;;;;;11.59;66.93;100419.56;1665710;86;21103;-75
2023/01/03 12:24:31;;;;;;;10.43;8.53;;;;;;;11.64;67.01;100416.87;1698153;84;21486;-75
2023/01/03 12:27:09;;;;;;;12.25;9.55;;;;;;;11.72;66.75;100420.20;1673155;85;21837;-75
2023/01/03 12:29:56;;;;;;;10.50;8.53;;;;;;;11.77;66.19;100419.33;1655558;85;21048;-76
2023/01/03 12:32:37;;;;;;;10.90;9.00;;;;;;;11.82;66.17;100425.61;1670057;86;21438;-76
2023/01/03 12:35:38;;;;;;;11.25;8.78;;;;;;;11.80;65.52;100419.13;1669508;86;21095;-75
2023/01/03 12:38:05;;;;;;;10.82;8.83;;;;;;;11.76;65.66;100423.78;1656429;86;21103;-75